createdAt,value
2018-12-09T00:03:10.054Z,6.94
2018-12-09T00:08:14.413Z,6.94
2018-12-09T00:13:16.454Z,7.01
2018-12-09T00:18:18.747Z,6.93
2018-12-09T00:23:21.034Z,7.02
2018-12-09T00:28:23.189Z,7.13
2018-12-09T00:33:25.259Z,7.22
2018-12-09T00:38:27.330Z,7.22
2018-12-09T00:43:29.485Z,7.55
2018-12-09T00:48:31.882Z,7.65
2018-12-09T00:53:34.161Z,7.79
2018-12-09T00:58:36.325Z,7.93
2018-12-09T01:03:38.633Z,8.18
2018-12-09T01:08:40.950Z,8.19
2018-12-09T01:13:43.725Z,8.29
2018-12-09T01:18:45.785Z,8.39
2018-12-09T01:23:48.085Z,8.38
2018-12-09T01:28:50.125Z,8.47
2018-12-09T01:33:52.509Z,8.29
2018-12-09T01:38:54.697Z,8.18
2018-12-09T01:43:56.986Z,8.06
2018-12-09T01:48:59.287Z,8.45
2018-12-09T01:54:08.353Z,8.35
2018-12-09T01:59:10.632Z,8.40
2018-12-09T02:04:13.101Z,8.85
2018-12-09T02:09:39.285Z,8.85
2018-12-09T02:14:41.554Z,9.79
2018-12-09T02:19:43.742Z,12.02
2018-12-09T02:24:46.037Z,11.38
2018-12-09T02:29:48.877Z,9.75
2018-12-09T02:34:51.679Z,10.07
2018-12-09T02:39:53.824Z,10.15
2018-12-09T02:44:56.111Z,9.82
2018-12-09T02:49:58.771Z,9.91
2018-12-09T02:55:01.131Z,9.97
2018-12-09T03:00:04.270Z,10.09
2018-12-09T03:05:07.928Z,10.28
2018-12-09T03:10:10.549Z,10.24
2018-12-09T03:15:13.325Z,10.20
2018-12-09T03:20:15.629Z,10.48
2018-12-09T03:25:19.142Z,10.14
2018-12-09T03:30:21.212Z,10.08
2018-12-09T03:35:23.438Z,9.89
2018-12-09T03:40:25.997Z,9.90
2018-12-09T03:45:28.275Z,9.73
2018-12-09T03:50:30.858Z,9.52
2018-12-09T03:55:35.061Z,9.58
2018-12-09T04:00:37.705Z,9.42
2018-12-09T04:05:39.917Z,9.51
2018-12-09T04:10:42.994Z,9.51
2018-12-09T04:15:45.309Z,9.32
2018-12-09T04:20:49.402Z,8.92
2018-12-09T04:25:51.606Z,9.41
2018-12-09T04:30:53.710Z,9.40
2018-12-09T04:35:56.174Z,9.49
2018-12-09T04:40:58.481Z,8.96
2018-12-09T04:46:00.707Z,9.32
2018-12-09T04:51:03.149Z,8.85
2018-12-09T04:56:05.324Z,8.96
2018-12-09T05:01:07.538Z,8.78
2018-12-09T05:06:09.657Z,8.88
2018-12-09T05:11:11.759Z,8.84
2018-12-09T05:16:14.397Z,8.77
2018-12-09T05:21:16.453Z,8.68
2018-12-09T05:26:18.779Z,8.62
2018-12-09T05:31:21.173Z,8.74
2018-12-09T05:36:23.347Z,8.65
2018-12-09T05:41:25.537Z,8.49
2018-12-09T05:46:28.517Z,8.84
2018-12-09T05:51:30.803Z,8.70
2018-12-09T05:56:33.209Z,8.77
2018-12-09T06:01:35.404Z,8.63
2018-12-09T06:06:37.721Z,8.56
2018-12-09T06:11:39.760Z,8.41
2018-12-09T06:16:42.034Z,8.65
2018-12-09T06:21:44.733Z,8.58
2018-12-09T06:26:47.929Z,8.54
2018-12-09T06:31:50.109Z,8.54
2018-12-09T06:36:52.421Z,8.60
2018-12-09T06:41:54.602Z,8.49
2018-12-09T06:46:56.799Z,8.58
2018-12-09T06:51:59.185Z,8.37
2018-12-09T06:57:01.235Z,8.36
2018-12-09T07:02:04.489Z,8.40
2018-12-09T07:07:06.877Z,8.43
2018-12-09T07:12:09.497Z,8.53
2018-12-09T07:17:11.701Z,8.38
2018-12-09T07:22:14.089Z,8.20
2018-12-09T07:27:16.157Z,8.38
2018-12-09T07:32:18.229Z,8.35
2018-12-09T07:37:20.424Z,8.47
2018-12-09T07:42:29.656Z,8.31
2018-12-09T07:47:31.722Z,8.46
2018-12-09T07:52:33.790Z,8.56
2018-12-09T07:57:35.861Z,8.90
2018-12-09T08:02:37.910Z,8.72
2018-12-09T08:07:40.142Z,8.98
2018-12-09T08:12:43.561Z,8.90
2018-12-09T08:17:45.629Z,8.95
2018-12-09T08:22:47.704Z,9.07
2018-12-09T08:27:49.968Z,8.98
2018-12-09T08:32:52.269Z,8.82
2018-12-09T08:37:54.351Z,8.87
2018-12-09T08:42:57.411Z,8.85
2018-12-09T08:47:59.590Z,8.91
2018-12-09T08:53:01.873Z,9.06
2018-12-09T08:58:04.336Z,8.97
2018-12-09T09:03:06.624Z,8.91
2018-12-09T09:08:08.721Z,8.98
2018-12-09T09:13:10.814Z,9.03
2018-12-09T09:18:13.054Z,9.12
2018-12-09T09:23:15.278Z,9.09
2018-12-09T09:28:17.571Z,9.16
2018-12-09T09:33:19.621Z,9.17
2018-12-09T09:38:21.797Z,9.25
2018-12-09T09:43:23.866Z,9.54
2018-12-09T09:48:26.029Z,9.55
2018-12-09T09:53:28.089Z,9.60
2018-12-09T09:58:30.413Z,9.84
2018-12-09T10:03:32.593Z,9.81
2018-12-09T10:08:35.029Z,9.75
2018-12-09T10:13:37.200Z,9.53
2018-12-09T10:18:39.357Z,9.70
2018-12-09T10:23:41.646Z,9.59
2018-12-09T10:28:43.759Z,9.51
2018-12-09T10:33:52.164Z,9.56
2018-12-09T10:38:54.390Z,9.58
2018-12-09T10:43:56.486Z,9.39
2018-12-09T10:48:58.533Z,9.60
2018-12-09T10:54:00.603Z,9.79
2018-12-09T10:59:02.887Z,9.82
2018-12-09T11:04:04.978Z,9.74
2018-12-09T11:09:07.136Z,9.71
2018-12-09T11:14:09.438Z,9.63
2018-12-09T11:19:11.635Z,9.53
2018-12-09T11:24:13.835Z,9.41
2018-12-09T11:29:15.905Z,9.33
2018-12-09T11:34:18.270Z,9.27
2018-12-09T11:39:20.342Z,9.36
2018-12-09T11:44:22.829Z,9.21
2018-12-09T11:49:25.449Z,8.96
2018-12-09T11:54:27.797Z,8.38
2018-12-09T11:59:29.846Z,6.76
2018-12-09T12:04:32.087Z,12.53
2018-12-09T12:09:36.519Z,11.11
2018-12-09T12:14:39.199Z,9.96
2018-12-09T12:19:42.089Z,6.48
2018-12-09T12:24:44.241Z,6.49
2018-12-09T12:29:46.417Z,6.50
2018-12-09T12:34:48.529Z,6.55
2018-12-09T12:39:50.718Z,6.69
2018-12-09T12:44:53.573Z,6.72
2018-12-09T12:49:55.885Z,6.75
2018-12-09T12:54:58.057Z,6.81
2018-12-09T13:00:00.142Z,7.10
2018-12-09T13:05:02.343Z,7.19
2018-12-09T13:10:06.326Z,7.37
2018-12-09T13:15:08.610Z,7.49
2018-12-09T13:20:10.793Z,7.54
2018-12-09T13:25:12.973Z,7.50
2018-12-09T13:30:15.245Z,7.48
2018-12-09T13:35:17.515Z,7.45
2018-12-09T13:40:19.698Z,7.47
2018-12-09T13:45:24.118Z,7.54
2018-12-09T13:50:26.429Z,7.54
2018-12-09T13:55:28.919Z,7.59
2018-12-09T14:00:33.743Z,7.57
2018-12-09T14:05:36.665Z,7.63
2018-12-09T14:10:38.969Z,7.62
2018-12-09T14:15:42.279Z,7.65
2018-12-09T14:20:44.425Z,7.70
2018-12-09T14:25:46.650Z,7.68
2018-12-09T14:30:49.393Z,7.71
2018-12-09T14:35:51.450Z,7.61
2018-12-09T14:40:53.638Z,7.64
2018-12-09T14:45:56.613Z,7.57
2018-12-09T14:50:58.795Z,7.59
2018-12-09T14:56:01.103Z,7.39
2018-12-09T15:01:03.574Z,7.29
2018-12-09T15:06:06.769Z,7.27
2018-12-09T15:11:09.166Z,7.25
2018-12-09T15:16:11.442Z,7.28
2018-12-09T15:21:13.611Z,7.28
2018-12-09T15:26:15.799Z,7.27
2018-12-09T15:31:18.058Z,7.24
2018-12-09T15:36:20.114Z,7.08
2018-12-09T15:41:22.298Z,7.04
2018-12-09T15:46:24.493Z,7.09
2018-12-09T15:51:26.901Z,7.12
2018-12-09T15:56:29.181Z,7.10
2018-12-09T16:01:31.365Z,7.13
2018-12-09T16:06:33.678Z,7.16
2018-12-09T16:11:35.953Z,7.11
2018-12-09T16:16:38.125Z,7.15
2018-12-09T16:21:40.288Z,7.14
2018-12-09T16:26:42.341Z,7.13
2018-12-09T16:31:44.493Z,7.12
2018-12-09T16:36:46.530Z,7.05
2018-12-09T16:41:48.730Z,7.10
2018-12-09T16:46:51.106Z,7.10
2018-12-09T16:51:53.361Z,7.14
2018-12-09T16:56:55.818Z,7.07
2018-12-09T17:01:57.987Z,6.98
2018-12-09T17:07:00.159Z,6.97
2018-12-09T17:12:02.414Z,7.00
2018-12-09T17:17:04.577Z,6.98
2018-12-09T17:22:06.962Z,6.93
2018-12-09T17:27:08.981Z,6.95
2018-12-09T17:32:11.242Z,6.90
2018-12-09T17:37:13.418Z,6.85
2018-12-09T17:42:15.613Z,6.85
2018-12-09T17:47:17.879Z,6.81
2018-12-09T17:52:19.994Z,6.77
2018-12-09T17:57:22.423Z,6.75
2018-12-09T18:02:25.761Z,6.75
2018-12-09T18:07:27.902Z,6.73
2018-12-09T18:12:30.579Z,6.73
2018-12-09T18:17:32.724Z,6.70
2018-12-09T18:22:35.061Z,6.72
2018-12-09T18:27:37.232Z,6.60
2018-12-09T18:32:39.518Z,6.57
2018-12-09T18:37:42.345Z,6.68
2018-12-09T18:42:45.782Z,6.64
2018-12-09T18:47:47.985Z,6.78
2018-12-09T18:52:50.163Z,6.91
2018-12-09T18:57:52.260Z,6.87
2018-12-09T19:02:54.413Z,7.02
2018-12-09T19:07:56.718Z,7.03
2018-12-09T19:12:59.072Z,7.23
2018-12-09T19:18:01.392Z,6.91
2018-12-09T19:23:03.434Z,6.89
2018-12-09T19:28:05.606Z,6.88
2018-12-09T19:33:08.090Z,6.91
2018-12-09T19:38:10.168Z,6.92
2018-12-09T19:43:13.369Z,6.90
2018-12-09T19:48:15.753Z,6.81
2018-12-09T19:53:17.933Z,6.74
2018-12-09T19:58:19.984Z,6.55
2018-12-09T20:03:22.132Z,6.53
2018-12-09T20:08:24.755Z,6.49
2018-12-09T20:13:26.810Z,6.43
2018-12-09T20:18:28.994Z,6.26
2018-12-09T20:23:31.172Z,6.18
2018-12-09T20:28:34.917Z,6.06
2018-12-09T20:33:37.301Z,6.28
2018-12-09T20:38:39.499Z,6.25
2018-12-09T20:43:41.642Z,6.46
2018-12-09T20:48:43.690Z,6.58
2018-12-09T20:53:45.775Z,6.63
2018-12-09T20:58:47.929Z,6.79
2018-12-09T21:03:57.013Z,6.65
2018-12-09T21:08:59.157Z,6.57
2018-12-09T21:14:02.258Z,6.62
2018-12-09T21:19:05.525Z,6.68
2018-12-09T21:24:07.920Z,6.55
2018-12-09T21:29:10.177Z,6.71
2018-12-09T21:34:12.341Z,6.66
2018-12-09T21:39:14.681Z,6.68
2018-12-09T21:44:16.827Z,6.56
2018-12-09T21:49:18.865Z,6.58
2018-12-09T21:54:20.914Z,6.57
2018-12-09T21:59:23.272Z,6.43
2018-12-09T22:04:25.398Z,6.14
2018-12-09T22:09:27.510Z,6.19
2018-12-09T22:14:29.570Z,6.26
2018-12-09T22:19:31.846Z,6.13
2018-12-09T22:24:34.211Z,6.03
2018-12-09T22:29:36.478Z,5.83
2018-12-09T22:34:38.523Z,6.00
2018-12-09T22:39:40.813Z,5.96
2018-12-09T22:44:43.070Z,5.94
2018-12-09T22:49:45.332Z,5.94
2018-12-09T22:54:47.494Z,6.03
2018-12-09T22:59:49.766Z,5.90
2018-12-09T23:04:51.914Z,6.02
2018-12-09T23:09:54.284Z,5.98
2018-12-09T23:14:56.546Z,5.92
2018-12-09T23:19:58.694Z,5.94
2018-12-09T23:25:00.863Z,6.03
2018-12-09T23:30:04.093Z,5.98
2018-12-09T23:35:06.965Z,5.91
2018-12-09T23:40:09.248Z,5.99
2018-12-09T23:45:11.397Z,5.88
2018-12-09T23:50:13.568Z,5.90
2018-12-09T23:55:15.846Z,5.80
